sensor_id;sensor_type;location;lat;lon;timestamp;temperature;humidity
47336;DHT22;33068;51.990;5.926;2023-06-10T00:01:52;21.20;91.90
47336;DHT22;33068;51.990;5.926;2023-06-10T00:04:21;21.20;91.70
47336;DHT22;33068;51.990;5.926;2023-06-10T00:06:49;21.10;91.80
47336;DHT22;33068;51.990;5.926;2023-06-10T00:09:17;21.10;91.80
47336;DHT22;33068;51.990;5.926;2023-06-10T00:11:44;21.00;91.70
47336;DHT22;33068;51.990;5.926;2023-06-10T00:14:11;21.00;91.50
47336;DHT22;33068;51.990;5.926;2023-06-10T00:16:38;21.00;91.70
47336;DHT22;33068;51.990;5.926;2023-06-10T00:19:06;20.90;91.60
47336;DHT22;33068;51.990;5.926;2023-06-10T00:21:41;20.90;91.40
47336;DHT22;33068;51.990;5.926;2023-06-10T00:24:15;20.80;91.50
47336;DHT22;33068;51.990;5.926;2023-06-10T00:26:42;20.80;91.50
47336;DHT22;33068;51.990;5.926;2023-06-10T00:29:10;20.70;91.40
47336;DHT22;33068;51.990;5.926;2023-06-10T00:31:37;20.70;91.40
47336;DHT22;33068;51.990;5.926;2023-06-10T00:34:06;20.60;91.70
47336;DHT22;33068;51.990;5.926;2023-06-10T00:36:33;20.60;91.60
47336;DHT22;33068;51.990;5.926;2023-06-10T00:39:01;20.60;91.20
47336;DHT22;33068;51.990;5.926;2023-06-10T00:41:31;20.50;91.00
47336;DHT22;33068;51.990;5.926;2023-06-10T00:43:59;20.60;91.10
47336;DHT22;33068;51.990;5.926;2023-06-10T00:46:27;20.50;90.90
47336;DHT22;33068;51.990;5.926;2023-06-10T00:48:55;20.50;90.90
47336;DHT22;33068;51.990;5.926;2023-06-10T00:51:23;20.50;90.90
47336;DHT22;33068;51.990;5.926;2023-06-10T00:53:52;20.50;90.90
47336;DHT22;33068;51.990;5.926;2023-06-10T00:56:20;20.40;91.20
47336;DHT22;33068;51.990;5.926;2023-06-10T00:58:49;20.30;90.80
47336;DHT22;33068;51.990;5.926;2023-06-10T01:01:16;20.30;91.00
47336;DHT22;33068;51.990;5.926;2023-06-10T01:03:45;20.30;91.10
47336;DHT22;33068;51.990;5.926;2023-06-10T01:06:20;20.20;90.90
47336;DHT22;33068;51.990;5.926;2023-06-10T01:08:55;20.20;91.00
47336;DHT22;33068;51.990;5.926;2023-06-10T01:11:28;20.20;90.80
47336;DHT22;33068;51.990;5.926;2023-06-10T01:13:58;20.20;90.90
47336;DHT22;33068;51.990;5.926;2023-06-10T01:16:26;20.10;90.90
47336;DHT22;33068;51.990;5.926;2023-06-10T01:18:54;20.10;90.80
47336;DHT22;33068;51.990;5.926;2023-06-10T01:21:23;20.10;90.90
47336;DHT22;33068;51.990;5.926;2023-06-10T01:23:52;20.00;90.80
47336;DHT22;33068;51.990;5.926;2023-06-10T01:26:23;20.00;90.80
47336;DHT22;33068;51.990;5.926;2023-06-10T01:28:58;19.90;91.00
47336;DHT22;33068;51.990;5.926;2023-06-10T01:31:32;19.90;90.80
47336;DHT22;33068;51.990;5.926;2023-06-10T01:34:04;19.90;90.80
47336;DHT22;33068;51.990;5.926;2023-06-10T01:36:35;19.90;90.90
47336;DHT22;33068;51.990;5.926;2023-06-10T01:39:04;19.80;91.10
47336;DHT22;33068;51.990;5.926;2023-06-10T01:41:32;19.70;91.00
47336;DHT22;33068;51.990;5.926;2023-06-10T01:43:59;19.70;91.20
47336;DHT22;33068;51.990;5.926;2023-06-10T01:46:26;19.70;91.20
47336;DHT22;33068;51.990;5.926;2023-06-10T01:48:53;19.60;91.40
47336;DHT22;33068;51.990;5.926;2023-06-10T01:51:21;19.60;91.50
47336;DHT22;33068;51.990;5.926;2023-06-10T01:53:49;19.60;91.40
47336;DHT22;33068;51.990;5.926;2023-06-10T01:56:16;19.50;91.80
47336;DHT22;33068;51.990;5.926;2023-06-10T01:58:45;19.50;91.80
47336;DHT22;33068;51.990;5.926;2023-06-10T02:01:12;19.50;91.80
47336;DHT22;33068;51.990;5.926;2023-06-10T02:03:39;19.50;91.70
47336;DHT22;33068;51.990;5.926;2023-06-10T02:06:08;19.50;92.00
47336;DHT22;33068;51.990;5.926;2023-06-10T02:08:35;19.40;91.80
47336;DHT22;33068;51.990;5.926;2023-06-10T02:11:04;19.40;92.10
47336;DHT22;33068;51.990;5.926;2023-06-10T02:13:32;19.40;92.00
47336;DHT22;33068;51.990;5.926;2023-06-10T02:15:59;19.40;92.50
47336;DHT22;33068;51.990;5.926;2023-06-10T02:18:29;19.40;92.40
47336;DHT22;33068;51.990;5.926;2023-06-10T02:20:56;19.40;92.40
47336;DHT22;33068;51.990;5.926;2023-06-10T02:23:23;19.30;92.60
47336;DHT22;33068;51.990;5.926;2023-06-10T02:25:50;19.30;92.90
47336;DHT22;33068;51.990;5.926;2023-06-10T02:28:18;19.20;93.30
47336;DHT22;33068;51.990;5.926;2023-06-10T02:30:45;19.20;93.30
47336;DHT22;33068;51.990;5.926;2023-06-10T02:33:14;19.20;93.40
47336;DHT22;33068;51.990;5.926;2023-06-10T02:35:41;19.10;93.60
47336;DHT22;33068;51.990;5.926;2023-06-10T02:38:08;19.10;94.00
47336;DHT22;33068;51.990;5.926;2023-06-10T02:40:36;19.10;94.10
47336;DHT22;33068;51.990;5.926;2023-06-10T02:43:03;19.00;93.90
47336;DHT22;33068;51.990;5.926;2023-06-10T02:45:32;19.00;94.20
47336;DHT22;33068;51.990;5.926;2023-06-10T02:48:01;19.00;94.40
47336;DHT22;33068;51.990;5.926;2023-06-10T02:50:30;18.90;94.40
47336;DHT22;33068;51.990;5.926;2023-06-10T02:53:14;18.90;94.50
47336;DHT22;33068;51.990;5.926;2023-06-10T02:55:47;18.90;94.90
47336;DHT22;33068;51.990;5.926;2023-06-10T02:58:17;18.80;94.80
47336;DHT22;33068;51.990;5.926;2023-06-10T03:00:45;18.80;94.80
47336;DHT22;33068;51.990;5.926;2023-06-10T03:03:13;18.80;95.40
47336;DHT22;33068;51.990;5.926;2023-06-10T03:05:50;18.90;95.10
47336;DHT22;33068;51.990;5.926;2023-06-10T03:08:20;18.80;95.10
47336;DHT22;33068;51.990;5.926;2023-06-10T03:10:47;18.80;95.50
47336;DHT22;33068;51.990;5.926;2023-06-10T03:13:17;18.80;95.50
47336;DHT22;33068;51.990;5.926;2023-06-10T03:15:46;18.80;95.50
47336;DHT22;33068;51.990;5.926;2023-06-10T03:18:17;18.70;95.70
47336;DHT22;33068;51.990;5.926;2023-06-10T03:20:45;18.70;95.90
47336;DHT22;33068;51.990;5.926;2023-06-10T03:23:12;18.70;95.80
47336;DHT22;33068;51.990;5.926;2023-06-10T03:25:40;18.70;96.10
47336;DHT22;33068;51.990;5.926;2023-06-10T03:28:07;18.60;96.30
47336;DHT22;33068;51.990;5.926;2023-06-10T03:30:36;18.60;96.20
47336;DHT22;33068;51.990;5.926;2023-06-10T03:33:04;18.70;96.70
47336;DHT22;33068;51.990;5.926;2023-06-10T03:35:32;18.60;96.50
47336;DHT22;33068;51.990;5.926;2023-06-10T03:38:01;18.50;96.70
47336;DHT22;33068;51.990;5.926;2023-06-10T03:40:28;18.50;96.70
47336;DHT22;33068;51.990;5.926;2023-06-10T03:42:58;18.40;97.00
47336;DHT22;33068;51.990;5.926;2023-06-10T03:45:26;18.40;97.00
47336;DHT22;33068;51.990;5.926;2023-06-10T03:47:54;18.30;97.50
47336;DHT22;33068;51.990;5.926;2023-06-10T03:50:28;18.30;97.60
47336;DHT22;33068;51.990;5.926;2023-06-10T03:52:55;18.20;98.00
47336;DHT22;33068;51.990;5.926;2023-06-10T03:55:25;18.20;98.00
47336;DHT22;33068;51.990;5.926;2023-06-10T03:57:54;18.20;98.20
47336;DHT22;33068;51.990;5.926;2023-06-10T04:00:21;18.20;98.60
47336;DHT22;33068;51.990;5.926;2023-06-10T04:02:48;18.20;98.40
47336;DHT22;33068;51.990;5.926;2023-06-10T04:05:41;18.10;98.80
47336;DHT22;33068;51.990;5.926;2023-06-10T04:08:08;18.20;98.80
47336;DHT22;33068;51.990;5.926;2023-06-10T04:10:35;18.10;99.10
47336;DHT22;33068;51.990;5.926;2023-06-10T04:13:03;18.10;99.10
47336;DHT22;33068;51.990;5.926;2023-06-10T04:15:35;18.10;99.10
47336;DHT22;33068;51.990;5.926;2023-06-10T04:18:06;18.10;99.10
47336;DHT22;33068;51.990;5.926;2023-06-10T04:20:34;18.10;99.50
47336;DHT22;33068;51.990;5.926;2023-06-10T04:23:03;18.10;99.60
47336;DHT22;33068;51.990;5.926;2023-06-10T04:25:30;18.10;99.60
47336;DHT22;33068;51.990;5.926;2023-06-10T04:27:58;18.10;99.80
47336;DHT22;33068;51.990;5.926;2023-06-10T04:30:25;18.10;99.90
47336;DHT22;33068;51.990;5.926;2023-06-10T04:32:53;18.10;99.90
47336;DHT22;33068;51.990;5.926;2023-06-10T04:35:20;18.20;99.90
47336;DHT22;33068;51.990;5.926;2023-06-10T04:37:48;18.20;99.90
47336;DHT22;33068;51.990;5.926;2023-06-10T04:40:17;18.10;99.90
47336;DHT22;33068;51.990;5.926;2023-06-10T04:42:46;18.20;99.90
47336;DHT22;33068;51.990;5.926;2023-06-10T04:45:13;18.20;99.90
47336;DHT22;33068;51.990;5.926;2023-06-10T04:47:41;18.20;99.90
47336;DHT22;33068;51.990;5.926;2023-06-10T04:50:10;18.20;99.90
47336;DHT22;33068;51.990;5.926;2023-06-10T04:52:37;18.20;99.90
47336;DHT22;33068;51.990;5.926;2023-06-10T04:55:08;18.20;99.90
47336;DHT22;33068;51.990;5.926;2023-06-10T04:57:36;18.30;99.90
47336;DHT22;33068;51.990;5.926;2023-06-10T05:00:04;18.30;99.90
47336;DHT22;33068;51.990;5.926;2023-06-10T05:02:32;18.30;99.90
47336;DHT22;33068;51.990;5.926;2023-06-10T05:05:00;18.40;99.90
47336;DHT22;33068;51.990;5.926;2023-06-10T05:07:27;18.50;99.90
47336;DHT22;33068;51.990;5.926;2023-06-10T05:09:54;18.50;99.90
47336;DHT22;33068;51.990;5.926;2023-06-10T05:12:21;18.60;99.90
47336;DHT22;33068;51.990;5.926;2023-06-10T05:14:50;18.60;99.90
47336;DHT22;33068;51.990;5.926;2023-06-10T05:17:17;18.70;99.90
47336;DHT22;33068;51.990;5.926;2023-06-10T05:19:44;18.70;99.90
47336;DHT22;33068;51.990;5.926;2023-06-10T05:22:12;18.70;99.90
47336;DHT22;33068;51.990;5.926;2023-06-10T05:24:42;18.70;99.90
47336;DHT22;33068;51.990;5.926;2023-06-10T05:27:09;18.80;99.90
47336;DHT22;33068;51.990;5.926;2023-06-10T05:29:37;18.80;99.90
47336;DHT22;33068;51.990;5.926;2023-06-10T05:32:06;18.90;99.90
47336;DHT22;33068;51.990;5.926;2023-06-10T05:34:34;19.00;99.90
47336;DHT22;33068;51.990;5.926;2023-06-10T05:37:01;19.00;99.70
47336;DHT22;33068;51.990;5.926;2023-06-10T05:39:28;19.10;99.90
47336;DHT22;33068;51.990;5.926;2023-06-10T05:41:56;19.10;99.90
47336;DHT22;33068;51.990;5.926;2023-06-10T05:44:24;19.20;99.60
47336;DHT22;33068;51.990;5.926;2023-06-10T05:46:51;19.30;99.90
47336;DHT22;33068;51.990;5.926;2023-06-10T05:49:20;19.40;99.40
47336;DHT22;33068;51.990;5.926;2023-06-10T05:51:47;19.40;98.90
47336;DHT22;33068;51.990;5.926;2023-06-10T05:54:14;19.50;99.40
47336;DHT22;33068;51.990;5.926;2023-06-10T05:56:41;19.60;99.20
47336;DHT22;33068;51.990;5.926;2023-06-10T05:59:08;19.70;98.10
47336;DHT22;33068;51.990;5.926;2023-06-10T06:01:36;19.80;97.90
47336;DHT22;33068;51.990;5.926;2023-06-10T06:04:03;19.90;98.10
47336;DHT22;33068;51.990;5.926;2023-06-10T06:06:31;20.00;97.40
47336;DHT22;33068;51.990;5.926;2023-06-10T06:08:58;19.90;97.80
47336;DHT22;33068;51.990;5.926;2023-06-10T06:11:25;20.10;97.40
47336;DHT22;33068;51.990;5.926;2023-06-10T06:13:53;20.20;97.10
47336;DHT22;33068;51.990;5.926;2023-06-10T06:16:20;20.20;97.40
47336;DHT22;33068;51.990;5.926;2023-06-10T06:18:47;20.40;96.60
47336;DHT22;33068;51.990;5.926;2023-06-10T06:21:14;20.40;96.80
47336;DHT22;33068;51.990;5.926;2023-06-10T06:23:42;20.50;96.20
47336;DHT22;33068;51.990;5.926;2023-06-10T06:26:09;20.60;96.60
47336;DHT22;33068;51.990;5.926;2023-06-10T06:28:36;20.60;96.40
47336;DHT22;33068;51.990;5.926;2023-06-10T06:31:03;20.60;96.60
47336;DHT22;33068;51.990;5.926;2023-06-10T06:33:31;20.70;96.40
47336;DHT22;33068;51.990;5.926;2023-06-10T06:35:58;20.90;96.20
47336;DHT22;33068;51.990;5.926;2023-06-10T06:38:26;20.90;95.90
47336;DHT22;33068;51.990;5.926;2023-06-10T06:40:55;21.00;95.30
47336;DHT22;33068;51.990;5.926;2023-06-10T06:43:22;21.20;95.70
47336;DHT22;33068;51.990;5.926;2023-06-10T06:46:02;21.20;95.40
47336;DHT22;33068;51.990;5.926;2023-06-10T06:48:29;21.30;95.60
47336;DHT22;33068;51.990;5.926;2023-06-10T06:50:56;21.30;94.60
47336;DHT22;33068;51.990;5.926;2023-06-10T06:53:24;21.40;95.20
47336;DHT22;33068;51.990;5.926;2023-06-10T06:55:51;21.50;94.70
47336;DHT22;33068;51.990;5.926;2023-06-10T06:58:19;21.50;94.40
47336;DHT22;33068;51.990;5.926;2023-06-10T07:00:47;21.70;94.60
47336;DHT22;33068;51.990;5.926;2023-06-10T07:03:14;21.80;94.60
47336;DHT22;33068;51.990;5.926;2023-06-10T07:05:41;21.80;94.50
47336;DHT22;33068;51.990;5.926;2023-06-10T07:08:10;22.00;93.70
47336;DHT22;33068;51.990;5.926;2023-06-10T07:10:38;22.00;94.00
47336;DHT22;33068;51.990;5.926;2023-06-10T07:13:05;22.10;93.80
47336;DHT22;33068;51.990;5.926;2023-06-10T07:15:34;22.20;93.90
47336;DHT22;33068;51.990;5.926;2023-06-10T07:18:01;22.30;93.60
47336;DHT22;33068;51.990;5.926;2023-06-10T07:20:28;22.40;93.40
47336;DHT22;33068;51.990;5.926;2023-06-10T07:22:55;22.50;92.50
47336;DHT22;33068;51.990;5.926;2023-06-10T07:25:23;22.80;93.50
47336;DHT22;33068;51.990;5.926;2023-06-10T07:27:52;23.00;92.30
47336;DHT22;33068;51.990;5.926;2023-06-10T07:30:19;23.10;92.20
47336;DHT22;33068;51.990;5.926;2023-06-10T07:32:48;23.20;92.50
47336;DHT22;33068;51.990;5.926;2023-06-10T07:35:17;23.30;91.90
47336;DHT22;33068;51.990;5.926;2023-06-10T07:37:44;23.40;91.50
47336;DHT22;33068;51.990;5.926;2023-06-10T07:40:11;23.60;91.30
47336;DHT22;33068;51.990;5.926;2023-06-10T07:42:39;23.50;90.90
47336;DHT22;33068;51.990;5.926;2023-06-10T07:45:07;23.50;91.30
47336;DHT22;33068;51.990;5.926;2023-06-10T07:47:34;23.60;91.20
47336;DHT22;33068;51.990;5.926;2023-06-10T07:50:03;23.80;90.50
47336;DHT22;33068;51.990;5.926;2023-06-10T07:52:30;24.00;91.00
47336;DHT22;33068;51.990;5.926;2023-06-10T07:54:57;24.20;90.60
47336;DHT22;33068;51.990;5.926;2023-06-10T07:57:24;24.40;90.20
47336;DHT22;33068;51.990;5.926;2023-06-10T07:59:52;24.50;89.90
47336;DHT22;33068;51.990;5.926;2023-06-10T08:02:20;24.50;90.40
47336;DHT22;33068;51.990;5.926;2023-06-10T08:04:47;24.80;88.70
47336;DHT22;33068;51.990;5.926;2023-06-10T08:07:34;25.20;87.20
47336;DHT22;33068;51.990;5.926;2023-06-10T08:10:02;25.80;87.20
47336;DHT22;33068;51.990;5.926;2023-06-10T08:12:30;26.40;86.20
47336;DHT22;33068;51.990;5.926;2023-06-10T08:14:57;26.70;83.20
47336;DHT22;33068;51.990;5.926;2023-06-10T08:17:24;27.10;84.30
47336;DHT22;33068;51.990;5.926;2023-06-10T08:19:51;27.60;84.90
47336;DHT22;33068;51.990;5.926;2023-06-10T08:22:18;27.90;84.00
47336;DHT22;33068;51.990;5.926;2023-06-10T08:24:47;27.60;81.90
47336;DHT22;33068;51.990;5.926;2023-06-10T08:27:14;27.30;82.50
47336;DHT22;33068;51.990;5.926;2023-06-10T08:29:41;27.60;82.30
47336;DHT22;33068;51.990;5.926;2023-06-10T08:32:08;27.50;83.00
47336;DHT22;33068;51.990;5.926;2023-06-10T08:34:36;27.30;82.80
47336;DHT22;33068;51.990;5.926;2023-06-10T08:37:04;27.50;83.20
47336;DHT22;33068;51.990;5.926;2023-06-10T08:39:31;27.40;82.70
47336;DHT22;33068;51.990;5.926;2023-06-10T08:42:09;27.40;82.10
47336;DHT22;33068;51.990;5.926;2023-06-10T08:44:38;27.30;81.80
47336;DHT22;33068;51.990;5.926;2023-06-10T08:47:13;27.50;81.60
47336;DHT22;33068;51.990;5.926;2023-06-10T08:49:43;27.90;83.40
47336;DHT22;33068;51.990;5.926;2023-06-10T08:52:14;27.80;84.10
47336;DHT22;33068;51.990;5.926;2023-06-10T08:54:45;27.30;83.00
47336;DHT22;33068;51.990;5.926;2023-06-10T08:57:16;27.30;84.80
47336;DHT22;33068;51.990;5.926;2023-06-10T08:59:46;27.50;83.70
47336;DHT22;33068;51.990;5.926;2023-06-10T09:02:15;27.70;82.30
47336;DHT22;33068;51.990;5.926;2023-06-10T09:04:46;27.90;80.60
47336;DHT22;33068;51.990;5.926;2023-06-10T09:07:16;27.90;81.70
47336;DHT22;33068;51.990;5.926;2023-06-10T09:09:44;28.20;80.50
47336;DHT22;33068;51.990;5.926;2023-06-10T09:12:13;28.20;81.40
47336;DHT22;33068;51.990;5.926;2023-06-10T09:14:42;28.10;80.40
47336;DHT22;33068;51.990;5.926;2023-06-10T09:17:09;27.90;81.80
47336;DHT22;33068;51.990;5.926;2023-06-10T09:19:38;28.00;82.30
47336;DHT22;33068;51.990;5.926;2023-06-10T09:22:07;28.10;81.60
47336;DHT22;33068;51.990;5.926;2023-06-10T09:24:34;28.00;81.50
47336;DHT22;33068;51.990;5.926;2023-06-10T09:27:03;28.00;82.30
47336;DHT22;33068;51.990;5.926;2023-06-10T09:29:30;28.10;81.40
47336;DHT22;33068;51.990;5.926;2023-06-10T09:32:17;28.20;81.60
47336;DHT22;33068;51.990;5.926;2023-06-10T09:34:56;28.50;81.70
47336;DHT22;33068;51.990;5.926;2023-06-10T09:37:24;28.40;78.70
47336;DHT22;33068;51.990;5.926;2023-06-10T09:40:04;28.50;79.10
47336;DHT22;33068;51.990;5.926;2023-06-10T09:42:35;28.50;79.90
47336;DHT22;33068;51.990;5.926;2023-06-10T09:45:02;28.70;82.40
47336;DHT22;33068;51.990;5.926;2023-06-10T09:47:31;28.80;80.80
47336;DHT22;33068;51.990;5.926;2023-06-10T09:49:58;29.00;78.40
47336;DHT22;33068;51.990;5.926;2023-06-10T09:52:27;29.00;76.80
47336;DHT22;33068;51.990;5.926;2023-06-10T09:55:00;28.70;76.10
47336;DHT22;33068;51.990;5.926;2023-06-10T09:57:30;28.70;77.10
47336;DHT22;33068;51.990;5.926;2023-06-10T10:00:04;28.90;78.30
47336;DHT22;33068;51.990;5.926;2023-06-10T10:02:46;29.10;77.30
47336;DHT22;33068;51.990;5.926;2023-06-10T10:05:14;29.60;79.40
47336;DHT22;33068;51.990;5.926;2023-06-10T10:07:42;29.80;76.50
47336;DHT22;33068;51.990;5.926;2023-06-10T10:10:19;29.50;75.40
47336;DHT22;33068;51.990;5.926;2023-06-10T10:12:47;29.50;76.70
47336;DHT22;33068;51.990;5.926;2023-06-10T10:15:17;29.50;75.90
47336;DHT22;33068;51.990;5.926;2023-06-10T10:17:52;29.60;74.00
47336;DHT22;33068;51.990;5.926;2023-06-10T10:20:24;29.70;73.70
47336;DHT22;33068;51.990;5.926;2023-06-10T10:22:52;29.40;75.70
47336;DHT22;33068;51.990;5.926;2023-06-10T10:25:24;29.60;73.30
47336;DHT22;33068;51.990;5.926;2023-06-10T10:27:57;29.80;75.40
47336;DHT22;33068;51.990;5.926;2023-06-10T10:30:25;30.10;74.20
47336;DHT22;33068;51.990;5.926;2023-06-10T10:32:58;30.30;73.00
47336;DHT22;33068;51.990;5.926;2023-06-10T10:35:26;30.30;74.10
47336;DHT22;33068;51.990;5.926;2023-06-10T10:37:54;30.20;72.80
47336;DHT22;33068;51.990;5.926;2023-06-10T10:40:22;30.00;73.00
47336;DHT22;33068;51.990;5.926;2023-06-10T10:42:51;29.90;72.50
47336;DHT22;33068;51.990;5.926;2023-06-10T10:45:18;30.00;71.80
47336;DHT22;33068;51.990;5.926;2023-06-10T10:47:52;30.20;71.40
47336;DHT22;33068;51.990;5.926;2023-06-10T10:50:21;30.60;71.20
47336;DHT22;33068;51.990;5.926;2023-06-10T10:52:54;30.50;69.60
47336;DHT22;33068;51.990;5.926;2023-06-10T10:55:22;30.70;67.90
47336;DHT22;33068;51.990;5.926;2023-06-10T10:57:57;30.40;68.30
47336;DHT22;33068;51.990;5.926;2023-06-10T11:00:29;30.20;68.60
47336;DHT22;33068;51.990;5.926;2023-06-10T11:03:04;30.20;68.70
47336;DHT22;33068;51.990;5.926;2023-06-10T11:05:37;30.50;69.50
47336;DHT22;33068;51.990;5.926;2023-06-10T11:08:05;30.80;69.00
47336;DHT22;33068;51.990;5.926;2023-06-10T11:10:34;30.70;69.30
47336;DHT22;33068;51.990;5.926;2023-06-10T11:13:06;30.70;69.30
47336;DHT22;33068;51.990;5.926;2023-06-10T11:15:38;30.60;69.00
47336;DHT22;33068;51.990;5.926;2023-06-10T11:18:24;30.80;68.60
47336;DHT22;33068;51.990;5.926;2023-06-10T11:20:56;30.90;70.20
47336;DHT22;33068;51.990;5.926;2023-06-10T11:23:45;30.90;68.30
47336;DHT22;33068;51.990;5.926;2023-06-10T11:26:17;31.20;66.50
47336;DHT22;33068;51.990;5.926;2023-06-10T11:29:07;31.20;66.20
47336;DHT22;33068;51.990;5.926;2023-06-10T11:31:40;30.80;67.00
47336;DHT22;33068;51.990;5.926;2023-06-10T11:34:07;30.70;67.90
47336;DHT22;33068;51.990;5.926;2023-06-10T11:36:38;30.60;67.50
47336;DHT22;33068;51.990;5.926;2023-06-10T11:39:08;30.90;67.00
47336;DHT22;33068;51.990;5.926;2023-06-10T11:41:37;31.20;67.10
47336;DHT22;33068;51.990;5.926;2023-06-10T11:44:08;31.00;67.20
47336;DHT22;33068;51.990;5.926;2023-06-10T11:46:36;31.10;69.30
47336;DHT22;33068;51.990;5.926;2023-06-10T11:49:04;31.20;66.90
47336;DHT22;33068;51.990;5.926;2023-06-10T11:51:34;31.40;69.60
47336;DHT22;33068;51.990;5.926;2023-06-10T11:54:03;31.70;66.90
47336;DHT22;33068;51.990;5.926;2023-06-10T11:56:31;31.60;65.50
47336;DHT22;33068;51.990;5.926;2023-06-10T11:59:00;31.70;65.90
47336;DHT22;33068;51.990;5.926;2023-06-10T12:01:30;31.60;64.90
47336;DHT22;33068;51.990;5.926;2023-06-10T12:03:59;31.70;65.00
47336;DHT22;33068;51.990;5.926;2023-06-10T12:06:27;31.60;65.20
47336;DHT22;33068;51.990;5.926;2023-06-10T12:08:54;31.70;66.50
47336;DHT22;33068;51.990;5.926;2023-06-10T12:11:23;31.90;64.90
47336;DHT22;33068;51.990;5.926;2023-06-10T12:13:50;32.00;65.10
47336;DHT22;33068;51.990;5.926;2023-06-10T12:16:17;32.20;65.50
47336;DHT22;33068;51.990;5.926;2023-06-10T12:18:46;31.90;65.80
47336;DHT22;33068;51.990;5.926;2023-06-10T12:21:23;32.00;65.20
47336;DHT22;33068;51.990;5.926;2023-06-10T12:24:06;31.80;65.90
47336;DHT22;33068;51.990;5.926;2023-06-10T12:26:42;31.50;64.80
47336;DHT22;33068;51.990;5.926;2023-06-10T12:29:28;31.60;65.00
47336;DHT22;33068;51.990;5.926;2023-06-10T12:31:57;31.90;64.80
47336;DHT22;33068;51.990;5.926;2023-06-10T12:34:29;31.80;66.20
47336;DHT22;33068;51.990;5.926;2023-06-10T12:36:56;31.80;65.80
47336;DHT22;33068;51.990;5.926;2023-06-10T12:39:23;32.10;67.00
47336;DHT22;33068;51.990;5.926;2023-06-10T12:41:52;32.20;66.00
47336;DHT22;33068;51.990;5.926;2023-06-10T12:44:31;32.00;63.80
47336;DHT22;33068;51.990;5.926;2023-06-10T12:46:58;31.90;63.90
47336;DHT22;33068;51.990;5.926;2023-06-10T12:49:26;31.90;65.30
47336;DHT22;33068;51.990;5.926;2023-06-10T12:51:53;31.80;63.90
47336;DHT22;33068;51.990;5.926;2023-06-10T12:54:20;31.90;65.20
47336;DHT22;33068;51.990;5.926;2023-06-10T12:56:49;31.80;64.50
47336;DHT22;33068;51.990;5.926;2023-06-10T12:59:17;31.60;65.80
47336;DHT22;33068;51.990;5.926;2023-06-10T13:01:49;31.50;63.60
47336;DHT22;33068;51.990;5.926;2023-06-10T13:04:16;31.70;63.90
47336;DHT22;33068;51.990;5.926;2023-06-10T13:06:44;31.90;63.50
47336;DHT22;33068;51.990;5.926;2023-06-10T13:09:13;32.00;63.00
47336;DHT22;33068;51.990;5.926;2023-06-10T13:11:41;32.30;65.20
47336;DHT22;33068;51.990;5.926;2023-06-10T13:14:10;32.60;65.80
47336;DHT22;33068;51.990;5.926;2023-06-10T13:16:38;32.60;63.70
47336;DHT22;33068;51.990;5.926;2023-06-10T13:19:06;32.80;64.20
47336;DHT22;33068;51.990;5.926;2023-06-10T13:21:33;32.90;65.30
47336;DHT22;33068;51.990;5.926;2023-06-10T13:24:01;32.60;63.70
47336;DHT22;33068;51.990;5.926;2023-06-10T13:26:29;32.40;63.30
47336;DHT22;33068;51.990;5.926;2023-06-10T13:28:56;32.40;64.40
47336;DHT22;33068;51.990;5.926;2023-06-10T13:31:23;32.60;62.70
47336;DHT22;33068;51.990;5.926;2023-06-10T13:33:52;32.80;62.40
47336;DHT22;33068;51.990;5.926;2023-06-10T13:36:19;33.00;62.20
47336;DHT22;33068;51.990;5.926;2023-06-10T13:38:46;33.00;61.40
47336;DHT22;33068;51.990;5.926;2023-06-10T13:41:14;33.60;61.10
47336;DHT22;33068;51.990;5.926;2023-06-10T13:43:41;33.70;60.80
47336;DHT22;33068;51.990;5.926;2023-06-10T13:46:08;33.50;61.60
47336;DHT22;33068;51.990;5.926;2023-06-10T13:48:35;32.80;60.80
47336;DHT22;33068;51.990;5.926;2023-06-10T13:51:07;32.80;63.30
47336;DHT22;33068;51.990;5.926;2023-06-10T13:53:34;32.90;64.60
47336;DHT22;33068;51.990;5.926;2023-06-10T13:56:03;33.30;62.90
47336;DHT22;33068;51.990;5.926;2023-06-10T13:58:30;33.50;62.70
47336;DHT22;33068;51.990;5.926;2023-06-10T14:00:57;34.00;62.40
47336;DHT22;33068;51.990;5.926;2023-06-10T14:03:24;33.90;62.90
47336;DHT22;33068;51.990;5.926;2023-06-10T14:05:51;34.30;62.20
47336;DHT22;33068;51.990;5.926;2023-06-10T14:08:20;34.00;61.70
47336;DHT22;33068;51.990;5.926;2023-06-10T14:10:48;33.70;61.70
47336;DHT22;33068;51.990;5.926;2023-06-10T14:13:16;33.70;61.30
47336;DHT22;33068;51.990;5.926;2023-06-10T14:15:43;33.50;60.10
47336;DHT22;33068;51.990;5.926;2023-06-10T14:18:11;33.70;62.90
47336;DHT22;33068;51.990;5.926;2023-06-10T14:20:38;33.80;60.50
47336;DHT22;33068;51.990;5.926;2023-06-10T14:23:05;34.00;61.60
47336;DHT22;33068;51.990;5.926;2023-06-10T14:25:33;33.80;59.90
47336;DHT22;33068;51.990;5.926;2023-06-10T14:28:00;33.70;60.20
47336;DHT22;33068;51.990;5.926;2023-06-10T14:30:28;33.70;61.10
47336;DHT22;33068;51.990;5.926;2023-06-10T14:32:55;33.90;60.50
47336;DHT22;33068;51.990;5.926;2023-06-10T14:35:22;34.20;60.00
47336;DHT22;33068;51.990;5.926;2023-06-10T14:37:49;34.40;59.20
47336;DHT22;33068;51.990;5.926;2023-06-10T14:40:16;34.50;60.50
47336;DHT22;33068;51.990;5.926;2023-06-10T14:42:44;34.50;60.40
47336;DHT22;33068;51.990;5.926;2023-06-10T14:45:12;34.40;60.20
47336;DHT22;33068;51.990;5.926;2023-06-10T14:47:40;34.60;60.40
47336;DHT22;33068;51.990;5.926;2023-06-10T14:50:08;35.00;59.90
47336;DHT22;33068;51.990;5.926;2023-06-10T14:52:35;35.30;60.10
47336;DHT22;33068;51.990;5.926;2023-06-10T14:55:03;35.00;59.50
47336;DHT22;33068;51.990;5.926;2023-06-10T14:57:30;34.50;60.30
47336;DHT22;33068;51.990;5.926;2023-06-10T14:59:59;34.50;60.10
47336;DHT22;33068;51.990;5.926;2023-06-10T15:02:26;34.10;60.40
47336;DHT22;33068;51.990;5.926;2023-06-10T15:04:53;34.30;59.00
47336;DHT22;33068;51.990;5.926;2023-06-10T15:07:20;34.90;58.90
47336;DHT22;33068;51.990;5.926;2023-06-10T15:09:47;35.20;58.30
47336;DHT22;33068;51.990;5.926;2023-06-10T15:12:14;35.10;58.80
47336;DHT22;33068;51.990;5.926;2023-06-10T15:14:41;34.80;59.60
47336;DHT22;33068;51.990;5.926;2023-06-10T15:17:10;34.90;58.70
47336;DHT22;33068;51.990;5.926;2023-06-10T15:19:37;35.00;59.50
47336;DHT22;33068;51.990;5.926;2023-06-10T15:22:04;35.00;58.40
47336;DHT22;33068;51.990;5.926;2023-06-10T15:24:31;35.00;58.90
47336;DHT22;33068;51.990;5.926;2023-06-10T15:26:58;34.70;58.70
47336;DHT22;33068;51.990;5.926;2023-06-10T15:29:27;34.50;59.40
47336;DHT22;33068;51.990;5.926;2023-06-10T15:31:54;34.50;60.50
47336;DHT22;33068;51.990;5.926;2023-06-10T15:34:22;34.60;60.70
47336;DHT22;33068;51.990;5.926;2023-06-10T15:36:49;34.90;58.60
47336;DHT22;33068;51.990;5.926;2023-06-10T15:39:16;35.20;57.60
47336;DHT22;33068;51.990;5.926;2023-06-10T15:41:44;35.70;58.20